createdAt,value
2022-08-06T00:00:03.160Z,4.97
2022-08-06T00:02:22.693Z,5.80
2022-08-06T00:04:52.774Z,5.30
2022-08-06T00:07:22.403Z,4.53
2022-08-06T00:10:00.187Z,4.85
2022-08-06T00:12:33.452Z,4.95
2022-08-06T00:15:12.385Z,5.10
2022-08-06T00:17:44.036Z,4.40
2022-08-06T00:20:26.169Z,4.60
2022-08-06T00:23:00.137Z,4.88
2022-08-06T00:25:28.382Z,5.25
2022-08-06T00:27:55.250Z,5.28
2022-08-06T00:30:23.846Z,4.20
2022-08-06T00:32:52.164Z,4.50
2022-08-06T00:35:23.546Z,4.72
2022-08-06T00:37:54.947Z,4.50
2022-08-06T00:40:26.409Z,4.28
2022-08-06T00:43:02.520Z,4.07
2022-08-06T00:45:38.149Z,4.13
2022-08-06T00:48:09.329Z,4.03
2022-08-06T00:50:56.123Z,4.25
2022-08-06T00:53:22.916Z,4.50
2022-08-06T00:55:59.485Z,3.88
2022-08-06T00:58:28.860Z,4.20
2022-08-06T01:01:07.720Z,3.78
2022-08-06T01:03:51.741Z,3.75
2022-08-06T01:06:57.228Z,3.38
2022-08-06T01:09:10.419Z,3.25
2022-08-06T01:11:38.569Z,3.50
2022-08-06T01:14:09.472Z,4.30
2022-08-06T01:16:47.587Z,3.50
2022-08-06T01:19:50.662Z,4.28
2022-08-06T01:22:31.448Z,3.40
2022-08-06T01:25:12.738Z,4.40
2022-08-06T01:27:56.667Z,3.67
2022-08-06T01:30:38.589Z,3.78
2022-08-06T01:33:15.621Z,3.42
2022-08-06T01:35:54.979Z,3.28
2022-08-06T01:38:35.964Z,3.38
2022-08-06T01:41:07.401Z,2.80
2022-08-06T01:44:07.944Z,3.15
2022-08-06T01:46:25.394Z,3.20
2022-08-06T01:48:57.762Z,3.10
2022-08-06T01:52:14.843Z,3.13
2022-08-06T01:54:15.221Z,3.45
2022-08-06T01:56:57.309Z,3.53
2022-08-06T01:59:31.427Z,3.42
2022-08-06T02:02:01.344Z,3.10
2022-08-06T02:04:38.902Z,3.08
2022-08-06T02:08:33.863Z,3.58
2022-08-06T02:09:59.733Z,3.17
2022-08-06T02:12:28.958Z,3.38
2022-08-06T02:15:03.476Z,3.70
2022-08-06T02:18:03.405Z,3.58
2022-08-06T02:20:37.014Z,2.88
2022-08-06T02:23:08.693Z,3.75
2022-08-06T02:25:41.461Z,3.50
2022-08-06T02:28:12.006Z,3.58
2022-08-06T02:30:50.001Z,3.60
2022-08-06T02:33:19.166Z,3.60
2022-08-06T02:36:27.169Z,3.65
2022-08-06T02:39:07.667Z,3.83
2022-08-06T02:41:55.605Z,3.88
2022-08-06T02:44:46.014Z,3.30
2022-08-06T02:47:22.064Z,3.70
2022-08-06T02:50:06.169Z,4.13
2022-08-06T02:52:56.716Z,4.03
2022-08-06T02:55:34.372Z,4.53
2022-08-06T02:58:29.187Z,4.00
2022-08-06T03:01:08.922Z,4.43
2022-08-06T03:03:53.704Z,4.43
2022-08-06T03:06:26.617Z,4.32
2022-08-06T03:08:58.777Z,4.10
2022-08-06T03:11:32.007Z,4.53
2022-08-06T03:14:12.766Z,4.20
2022-08-06T03:16:57.754Z,4.38
2022-08-06T03:19:57.775Z,4.40
2022-08-06T03:22:34.578Z,4.60
2022-08-06T03:25:05.853Z,4.60
2022-08-06T03:27:43.392Z,4.68
2022-08-06T03:30:32.130Z,4.82
2022-08-06T03:33:07.675Z,4.80
2022-08-06T03:35:51.610Z,4.57
2022-08-06T03:38:22.643Z,4.95
2022-08-06T03:40:57.227Z,5.53
2022-08-06T03:43:27.713Z,5.45
2022-08-06T03:46:04.945Z,5.15
2022-08-06T03:48:41.805Z,5.40
2022-08-06T03:51:14.640Z,5.50
2022-08-06T03:53:46.609Z,5.38
2022-08-06T03:56:22.284Z,5.60
2022-08-06T03:58:51.783Z,5.78
2022-08-06T04:01:24.001Z,6.20
2022-08-06T04:03:54.472Z,5.43
2022-08-06T04:06:23.097Z,5.50
2022-08-06T04:08:55.142Z,5.53
2022-08-06T04:12:12.778Z,5.18
2022-08-06T04:14:11.001Z,4.80
2022-08-06T04:16:39.808Z,5.50
2022-08-06T04:19:12.805Z,4.90
2022-08-06T04:22:57.948Z,4.93
2022-08-06T04:24:30.994Z,5.03
2022-08-06T04:27:05.519Z,5.18
2022-08-06T04:29:57.055Z,5.30
2022-08-06T04:32:28.911Z,5.55
2022-08-06T04:36:06.769Z,5.00
2022-08-06T04:37:45.457Z,5.70
2022-08-06T04:43:01.711Z,5.20
2022-08-06T04:46:18.067Z,5.07
2022-08-06T04:48:21.117Z,5.07
2022-08-06T04:50:48.714Z,5.22
2022-08-06T04:53:30.272Z,5.30
2022-08-06T04:56:15.127Z,5.65
2022-08-06T04:58:44.902Z,5.55
2022-08-06T05:01:12.391Z,5.47
2022-08-06T05:04:07.466Z,5.40
2022-08-06T05:06:53.740Z,6.20
2022-08-06T05:09:42.732Z,5.60
2022-08-06T05:12:22.969Z,6.00
2022-08-06T05:15:09.677Z,6.10
2022-08-06T05:17:41.403Z,6.00
2022-08-06T05:20:27.937Z,5.70
2022-08-06T05:23:03.579Z,5.82
2022-08-06T05:25:36.233Z,5.70
2022-08-06T05:28:11.180Z,5.40
2022-08-06T05:30:49.947Z,5.68
2022-08-06T05:33:24.709Z,5.38
2022-08-06T05:36:01.621Z,5.10
2022-08-06T05:38:31.759Z,5.55
2022-08-06T05:41:00.133Z,5.97
2022-08-06T05:43:58.872Z,5.03
2022-08-06T05:46:21.337Z,5.15
2022-08-06T05:48:55.247Z,5.95
2022-08-06T05:51:47.066Z,5.85
2022-08-06T05:56:53.868Z,4.95
2022-08-06T05:59:38.182Z,5.30
2022-08-06T06:02:19.069Z,5.43
2022-08-06T06:06:02.021Z,5.07
2022-08-06T06:08:08.868Z,4.85
2022-08-06T06:10:26.796Z,4.88
2022-08-06T06:12:56.157Z,4.65
2022-08-06T06:16:00.441Z,5.30
2022-08-06T06:18:40.154Z,4.90
2022-08-06T06:21:32.547Z,5.25
2022-08-06T06:24:19.549Z,5.95
2022-08-06T06:27:02.587Z,5.70
2022-08-06T06:30:06.248Z,5.70
2022-08-06T06:32:47.704Z,5.78
2022-08-06T06:35:32.732Z,5.20
2022-08-06T06:38:13.813Z,5.30
2022-08-06T06:41:02.970Z,5.18
2022-08-06T06:43:39.582Z,5.85
2022-08-06T06:46:37.045Z,4.60
2022-08-06T06:50:02.807Z,5.30
2022-08-06T06:52:29.987Z,5.35
2022-08-06T06:55:36.827Z,5.32
2022-08-06T06:58:24.675Z,5.60
2022-08-06T07:01:12.148Z,6.15
2022-08-06T07:03:43.720Z,6.10
2022-08-06T07:06:11.749Z,5.68
2022-08-06T07:08:58.875Z,5.55
2022-08-06T07:11:27.757Z,5.45
2022-08-06T07:14:08.176Z,5.78
2022-08-06T07:16:36.893Z,5.88
2022-08-06T07:19:10.778Z,5.82
2022-08-06T07:21:42.368Z,6.07
2022-08-06T07:24:36.892Z,4.72
2022-08-06T07:27:03.911Z,9.52
2022-08-06T07:29:49.838Z,10.32
2022-08-06T07:32:30.826Z,11.68
2022-08-06T07:35:00.899Z,11.90
2022-08-06T07:37:38.479Z,12.25
2022-08-06T07:40:09.965Z,12.00
2022-08-06T07:42:39.288Z,10.80
2022-08-06T07:45:15.090Z,10.98
2022-08-06T07:47:54.143Z,9.23
2022-08-06T07:50:25.054Z,9.23
2022-08-06T07:52:56.682Z,9.30
2022-08-06T07:55:36.853Z,10.10
2022-08-06T07:58:05.942Z,9.88
2022-08-06T08:00:33.395Z,9.07
2022-08-06T08:03:57.287Z,9.50
2022-08-06T08:06:24.953Z,9.32
2022-08-06T08:09:10.801Z,7.43
2022-08-06T08:12:25.521Z,7.90
2022-08-06T08:14:29.760Z,7.80
2022-08-06T08:16:56.767Z,7.82
2022-08-06T08:19:34.953Z,7.35
2022-08-06T08:22:18.733Z,7.35
2022-08-06T08:24:51.497Z,6.50
2022-08-06T08:27:37.161Z,7.38
2022-08-06T08:30:05.026Z,7.10
2022-08-06T08:32:32.376Z,6.90
2022-08-06T08:35:00.692Z,6.72
2022-08-06T08:37:32.474Z,6.50
2022-08-06T08:39:59.675Z,6.50
2022-08-06T08:42:41.424Z,6.95
2022-08-06T08:45:13.032Z,5.78
2022-08-06T08:47:57.361Z,5.85
2022-08-06T08:50:29.857Z,5.35
2022-08-06T08:53:45.628Z,5.47
2022-08-06T08:57:10.441Z,4.68
2022-08-06T08:59:02.189Z,4.22
2022-08-06T09:01:52.697Z,4.38
2022-08-06T09:04:21.271Z,4.10
2022-08-06T09:06:52.121Z,4.18
2022-08-06T09:09:19.455Z,3.83
2022-08-06T09:12:04.184Z,3.40
2022-08-06T09:14:34.197Z,7.47
2022-08-06T09:17:02.149Z,11.38
2022-08-06T09:19:38.203Z,6.35
2022-08-06T09:22:09.254Z,4.15
2022-08-06T09:24:39.284Z,6.60
2022-08-06T09:27:46.735Z,4.63
2022-08-06T09:30:11.558Z,3.88
2022-08-06T09:32:55.053Z,4.20
2022-08-06T09:35:44.048Z,3.40
2022-08-06T09:38:16.507Z,3.45
2022-08-06T09:41:06.853Z,3.40
2022-08-06T09:44:03.848Z,3.58
2022-08-06T09:46:48.942Z,3.67
2022-08-06T09:49:48.292Z,3.17
2022-08-06T09:52:17.949Z,3.40
2022-08-06T09:54:46.431Z,3.42
2022-08-06T09:57:15.218Z,3.95
2022-08-06T09:59:44.729Z,3.25
2022-08-06T10:02:23.667Z,3.25
2022-08-06T10:05:17.953Z,3.17
2022-08-06T10:07:52.954Z,3.03
2022-08-06T10:10:40.806Z,3.13
2022-08-06T10:13:15.157Z,3.28
2022-08-06T10:16:00.775Z,3.20
2022-08-06T10:18:56.081Z,3.33
2022-08-06T10:21:27.407Z,2.97
2022-08-06T10:24:05.929Z,3.25
2022-08-06T10:26:34.306Z,4.07
2022-08-06T10:29:06.560Z,3.45
2022-08-06T10:31:36.231Z,3.95
2022-08-06T10:34:18.439Z,2.92
2022-08-06T10:36:52.970Z,3.33
2022-08-06T10:40:02.875Z,2.90
2022-08-06T10:42:21.899Z,3.22
2022-08-06T10:44:51.567Z,2.90
2022-08-06T10:49:00.400Z,2.70
2022-08-06T10:50:32.248Z,3.00
2022-08-06T10:52:59.451Z,2.63
2022-08-06T10:55:37.733Z,2.47
2022-08-06T10:58:13.362Z,3.00
2022-08-06T11:00:45.019Z,3.10
2022-08-06T11:03:52.008Z,2.80
2022-08-06T11:06:52.185Z,2.75
2022-08-06T11:10:01.838Z,3.20
2022-08-06T11:12:42.727Z,2.78
2022-08-06T11:15:15.366Z,2.88
2022-08-06T11:17:52.816Z,2.47
2022-08-06T11:20:34.934Z,2.78
2022-08-06T11:23:51.965Z,2.58
2022-08-06T11:26:10.449Z,2.50
2022-08-06T11:28:57.241Z,2.53
2022-08-06T11:31:56.203Z,2.33
2022-08-06T11:34:51.112Z,2.00
2022-08-06T11:38:02.893Z,2.20
2022-08-06T11:40:57.499Z,2.05
2022-08-06T11:43:58.278Z,2.38
2022-08-06T11:46:36.018Z,2.20
2022-08-06T11:49:04.366Z,2.10
2022-08-06T11:51:48.027Z,2.65
2022-08-06T11:54:28.704Z,2.10
2022-08-06T11:57:16.138Z,2.10
2022-08-06T11:59:56.603Z,2.60
2022-08-06T12:02:44.532Z,2.40
2022-08-06T12:05:17.304Z,2.65
2022-08-06T12:08:38.813Z,2.13
2022-08-06T12:11:26.224Z,2.45
2022-08-06T12:14:31.710Z,2.40
2022-08-06T12:16:41.222Z,2.72
2022-08-06T12:19:19.995Z,2.22
2022-08-06T12:21:53.040Z,2.85
2022-08-06T12:24:45.283Z,2.25
2022-08-06T12:27:17.262Z,2.03
2022-08-06T12:29:59.933Z,2.08
2022-08-06T12:32:34.727Z,2.08
2022-08-06T12:35:11.788Z,2.00
2022-08-06T12:37:48.199Z,2.20
2022-08-06T12:40:25.259Z,2.20
2022-08-06T12:42:55.182Z,1.80
2022-08-06T12:46:04.165Z,1.52
2022-08-06T12:48:16.422Z,1.73
2022-08-06T12:50:44.388Z,1.63
2022-08-06T12:53:15.445Z,1.40
2022-08-06T12:55:56.563Z,1.58
2022-08-06T12:58:42.489Z,1.58
2022-08-06T13:01:16.445Z,1.40
2022-08-06T13:04:08.778Z,1.70
2022-08-06T13:09:07.533Z,1.60
2022-08-06T13:11:37.111Z,1.40
2022-08-06T13:14:18.259Z,1.17
2022-08-06T13:16:54.956Z,1.40
2022-08-06T13:19:32.362Z,1.13
2022-08-06T13:22:03.176Z,1.27
2022-08-06T13:24:34.417Z,1.37
2022-08-06T13:27:06.037Z,1.60
2022-08-06T13:30:33.655Z,1.50
2022-08-06T13:32:33.311Z,1.30
2022-08-06T13:35:07.374Z,1.40
2022-08-06T13:38:15.032Z,1.52
2022-08-06T13:40:57.078Z,1.52
2022-08-06T13:43:53.609Z,1.50
2022-08-06T13:46:29.965Z,1.40
2022-08-06T13:49:04.454Z,1.27
2022-08-06T13:51:48.735Z,1.00
2022-08-06T13:54:22.857Z,1.13
2022-08-06T13:56:52.589Z,1.20
2022-08-06T13:59:40.136Z,1.30
2022-08-06T14:02:09.198Z,1.08
2022-08-06T14:04:38.281Z,1.30
2022-08-06T14:07:05.226Z,1.20
2022-08-06T14:09:41.166Z,1.15
2022-08-06T14:12:20.559Z,1.13
2022-08-06T14:14:47.992Z,1.30
2022-08-06T14:17:15.352Z,1.10
2022-08-06T14:20:14.833Z,1.30
2022-08-06T14:22:37.013Z,1.35
2022-08-06T14:25:06.281Z,1.23
2022-08-06T14:27:42.775Z,1.13
2022-08-06T14:30:27.646Z,1.10
2022-08-06T14:32:57.926Z,1.10
2022-08-06T14:35:26.060Z,1.10
2022-08-06T14:37:55.945Z,1.20
2022-08-06T14:40:59.044Z,1.15
2022-08-06T14:43:56.509Z,0.90
2022-08-06T14:46:26.156Z,1.10
2022-08-06T14:48:57.516Z,1.50
2022-08-06T14:51:37.387Z,1.20
2022-08-06T14:54:13.933Z,1.20
2022-08-06T14:56:45.961Z,1.17
2022-08-06T14:59:22.724Z,1.25
2022-08-06T15:01:51.816Z,1.27
2022-08-06T15:04:24.730Z,1.67
2022-08-06T15:06:57.366Z,1.33
2022-08-06T15:09:28.111Z,1.20
2022-08-06T15:12:29.618Z,1.10
2022-08-06T15:15:04.909Z,1.13
2022-08-06T15:18:03.912Z,0.98
2022-08-06T15:20:25.095Z,1.02
2022-08-06T15:25:44.756Z,1.20
2022-08-06T15:28:07.170Z,1.00
2022-08-06T15:30:34.072Z,1.10
2022-08-06T15:33:02.078Z,1.00
2022-08-06T15:35:43.452Z,1.15
2022-08-06T15:38:19.953Z,1.10
2022-08-06T15:40:46.711Z,1.00
2022-08-06T15:43:14.018Z,1.10
2022-08-06T15:45:51.301Z,1.00
2022-08-06T15:48:28.347Z,1.10
2022-08-06T15:51:29.415Z,1.33
2022-08-06T15:53:54.737Z,1.00
2022-08-06T15:56:33.507Z,1.00
2022-08-06T15:59:06.174Z,1.30
2022-08-06T16:01:52.789Z,1.10
2022-08-06T16:04:27.372Z,0.82
2022-08-06T16:06:56.734Z,1.00
2022-08-06T16:09:28.320Z,1.08
2022-08-06T16:11:59.365Z,1.20
2022-08-06T16:14:32.994Z,0.93
2022-08-06T16:17:04.182Z,1.00
2022-08-06T16:19:49.547Z,1.20
2022-08-06T16:22:18.044Z,1.00
2022-08-06T16:24:44.966Z,1.08
2022-08-06T16:27:11.871Z,1.00
2022-08-06T16:29:41.902Z,1.20
2022-08-06T16:32:09.899Z,1.48
2022-08-06T16:34:37.149Z,0.95
2022-08-06T16:37:28.367Z,1.00
2022-08-06T16:39:57.411Z,1.20
2022-08-06T16:42:29.874Z,1.05
2022-08-06T16:45:03.121Z,1.00
2022-08-06T16:48:18.378Z,1.00
2022-08-06T16:50:27.997Z,1.00
2022-08-06T16:54:13.023Z,1.10
2022-08-06T16:55:49.342Z,0.88
2022-08-06T17:02:15.463Z,1.00
2022-08-06T17:03:59.051Z,1.15
2022-08-06T17:06:38.654Z,1.02
2022-08-06T17:09:16.784Z,0.93
2022-08-06T17:11:58.316Z,1.02
2022-08-06T17:14:28.008Z,1.10
2022-08-06T17:16:55.087Z,0.90
2022-08-06T17:19:22.242Z,1.10
2022-08-06T17:27:44.100Z,1.13
2022-08-06T17:30:14.638Z,1.00
2022-08-06T17:32:46.797Z,1.13
2022-08-06T17:35:15.977Z,0.90
2022-08-06T17:37:50.254Z,1.23
2022-08-06T17:40:31.465Z,0.90
2022-08-06T17:43:12.194Z,1.10
2022-08-06T17:45:51.676Z,0.90
2022-08-06T17:48:24.896Z,1.08
2022-08-06T17:50:52.875Z,1.00
2022-08-06T17:53:21.809Z,0.88
2022-08-06T17:56:00.225Z,0.90
2022-08-06T17:58:53.117Z,1.10
2022-08-06T18:01:43.883Z,1.25
2022-08-06T18:04:07.342Z,1.45
2022-08-06T18:06:50.102Z,1.23
2022-08-06T18:10:11.756Z,1.15
2022-08-06T18:12:05.280Z,1.23
2022-08-06T18:14:36.070Z,1.40
2022-08-06T18:17:03.018Z,1.42
2022-08-06T18:19:34.262Z,1.27
2022-08-06T18:22:21.590Z,1.38
2022-08-06T18:24:52.124Z,1.60
2022-08-06T18:27:53.427Z,1.50
2022-08-06T18:30:36.444Z,1.40
2022-08-06T18:33:03.839Z,1.55
2022-08-06T18:35:33.326Z,1.38
2022-08-06T18:38:04.495Z,1.60
2022-08-06T18:40:40.371Z,1.48
2022-08-06T18:43:10.117Z,1.85
2022-08-06T18:45:59.313Z,1.40
2022-08-06T18:48:27.152Z,1.40
2022-08-06T18:50:58.105Z,1.60
2022-08-06T18:54:00.369Z,1.80
2022-08-06T18:56:16.686Z,1.50
2022-08-06T18:58:47.005Z,1.58
2022-08-06T19:01:21.281Z,1.52
2022-08-06T19:03:50.293Z,1.50
2022-08-06T19:06:18.252Z,1.52
2022-08-06T19:08:58.445Z,1.90
2022-08-06T19:11:26.764Z,1.75
2022-08-06T19:14:18.234Z,1.90
2022-08-06T19:16:48.631Z,1.90
2022-08-06T19:19:24.836Z,1.90
2022-08-06T19:22:10.151Z,2.10
2022-08-06T19:24:39.662Z,2.00
2022-08-06T19:27:08.071Z,2.00
2022-08-06T19:29:58.158Z,2.08
2022-08-06T19:32:28.127Z,2.10
2022-08-06T19:34:59.743Z,1.88
2022-08-06T19:37:58.749Z,2.42
2022-08-06T19:40:34.415Z,1.80
2022-08-06T19:44:28.366Z,2.22
2022-08-06T19:46:30.401Z,2.20
2022-08-06T19:48:36.468Z,2.33
2022-08-06T19:51:15.241Z,2.22
2022-08-06T19:53:54.418Z,2.20
2022-08-06T19:56:21.881Z,2.47
2022-08-06T20:00:51.493Z,2.47
2022-08-06T20:01:49.763Z,2.33
2022-08-06T20:04:31.049Z,2.60
2022-08-06T20:07:01.649Z,2.38
2022-08-06T20:09:58.989Z,2.72
2022-08-06T20:12:29.829Z,3.03
2022-08-06T20:14:59.109Z,2.95
2022-08-06T20:17:29.850Z,2.35
2022-08-06T20:20:13.943Z,2.70
2022-08-06T20:22:43.156Z,2.80
2022-08-06T20:25:18.526Z,2.90
2022-08-06T20:29:07.539Z,2.75
2022-08-06T20:30:34.382Z,2.85
2022-08-06T20:33:02.076Z,3.03
2022-08-06T20:35:32.631Z,2.58
2022-08-06T20:38:07.380Z,2.70
2022-08-06T20:41:26.409Z,3.25
2022-08-06T20:44:04.700Z,3.70
2022-08-06T20:46:09.992Z,4.45
2022-08-06T20:48:39.462Z,4.70
2022-08-06T20:51:06.286Z,3.95
2022-08-06T20:53:37.369Z,3.42
2022-08-06T20:56:04.765Z,3.40
2022-08-06T20:58:32.624Z,3.45
2022-08-06T21:01:00.366Z,3.03
2022-08-06T21:05:11.138Z,2.95
2022-08-06T21:06:14.338Z,3.22
2022-08-06T21:08:50.630Z,3.38
2022-08-06T21:11:18.480Z,3.20
2022-08-06T21:14:03.605Z,3.10
2022-08-06T21:16:34.752Z,3.47
2022-08-06T21:19:06.859Z,3.50
2022-08-06T21:21:35.302Z,4.32
2022-08-06T21:24:04.778Z,3.22
2022-08-06T21:26:34.485Z,3.28
2022-08-06T21:30:08.382Z,3.40
2022-08-06T21:31:49.726Z,3.30
2022-08-06T21:34:19.516Z,3.03
2022-08-06T21:36:47.212Z,3.13
2022-08-06T21:39:16.920Z,3.60
2022-08-06T21:41:55.231Z,3.17
2022-08-06T21:44:24.556Z,3.65
2022-08-06T21:46:57.876Z,3.13
2022-08-06T21:50:19.269Z,2.95
2022-08-06T21:52:28.182Z,3.10
2022-08-06T21:55:11.402Z,3.20
2022-08-06T21:57:49.036Z,3.45
2022-08-06T22:00:34.225Z,3.15
2022-08-06T22:03:06.798Z,3.40
2022-08-06T22:06:20.390Z,3.67
2022-08-06T22:08:28.022Z,3.60
2022-08-06T22:12:38.939Z,3.60
2022-08-06T22:13:57.142Z,3.72
2022-08-06T22:16:32.988Z,3.55
2022-08-06T22:19:00.882Z,3.72
2022-08-06T22:21:41.729Z,3.65
2022-08-06T22:24:16.420Z,3.50
2022-08-06T22:26:43.203Z,3.90
2022-08-06T22:29:17.613Z,3.35
2022-08-06T22:31:56.691Z,3.65
2022-08-06T22:34:36.374Z,3.70
2022-08-06T22:37:06.729Z,3.80
2022-08-06T22:39:41.901Z,3.53
2022-08-06T22:42:09.566Z,3.70
2022-08-06T22:45:06.707Z,4.03
2022-08-06T22:47:28.828Z,3.60
2022-08-06T22:50:05.950Z,3.35
2022-08-06T22:53:03.147Z,3.75
2022-08-06T22:55:26.964Z,3.58
2022-08-06T22:58:47.701Z,3.33
2022-08-06T23:00:43.142Z,3.92
2022-08-06T23:03:13.896Z,3.70
2022-08-06T23:05:44.524Z,3.95
2022-08-06T23:08:14.798Z,3.65
2022-08-06T23:10:48.265Z,3.60
2022-08-06T23:13:25.442Z,3.78
2022-08-06T23:15:54.345Z,3.72
2022-08-06T23:18:22.388Z,4.00
2022-08-06T23:21:15.372Z,4.07
2022-08-06T23:23:47.819Z,3.35
2022-08-06T23:26:16.529Z,3.78
2022-08-06T23:28:43.310Z,3.67
2022-08-06T23:31:13.086Z,3.67
2022-08-06T23:33:49.909Z,3.53
2022-08-06T23:36:22.023Z,3.88
2022-08-06T23:38:52.525Z,3.72
2022-08-06T23:41:24.465Z,3.55
2022-08-06T23:44:07.706Z,3.70
2022-08-06T23:46:51.308Z,3.53
2022-08-06T23:49:24.019Z,4.47
2022-08-06T23:52:04.081Z,3.78
2022-08-06T23:54:31.483Z,3.78
2022-08-06T23:56:58.265Z,3.53
2022-08-06T23:59:45.656Z,3.25
